createdAt,value
2023-10-20T00:00:22.679Z,982.49
2023-10-20T00:00:52.784Z,982.48
2023-10-20T00:01:22.731Z,982.47
2023-10-20T00:01:52.656Z,982.45
2023-10-20T00:02:22.737Z,982.43
2023-10-20T00:02:52.653Z,982.39
2023-10-20T00:03:22.734Z,982.35
2023-10-20T00:03:52.661Z,982.32
2023-10-20T00:04:22.659Z,982.30
2023-10-20T00:04:52.640Z,982.29
2023-10-20T00:05:22.659Z,982.27
2023-10-20T00:05:52.671Z,982.25
2023-10-20T00:06:22.653Z,982.24
2023-10-20T00:06:52.662Z,982.25
2023-10-20T00:07:22.628Z,982.26
2023-10-20T00:07:52.759Z,982.27
2023-10-20T00:08:22.823Z,982.28
2023-10-20T00:08:52.587Z,982.31
2023-10-20T00:09:22.595Z,982.30
2023-10-20T00:09:52.594Z,982.31
2023-10-20T00:10:22.594Z,982.30
2023-10-20T00:10:52.680Z,982.30
2023-10-20T00:11:22.691Z,982.31
2023-10-20T00:11:52.675Z,982.31
2023-10-20T00:12:22.584Z,982.30
2023-10-20T00:12:52.576Z,982.30
2023-10-20T00:13:22.563Z,982.28
2023-10-20T00:13:52.585Z,982.27
2023-10-20T00:14:22.602Z,982.26
2023-10-20T00:14:52.548Z,982.25
2023-10-20T00:15:22.571Z,982.24
2023-10-20T00:15:52.565Z,982.23
2023-10-20T00:16:22.532Z,982.23
2023-10-20T00:16:52.600Z,982.23
2023-10-20T00:17:22.537Z,982.23
2023-10-20T00:17:52.611Z,982.25
2023-10-20T00:18:22.540Z,982.26
2023-10-20T00:18:52.512Z,982.26
2023-10-20T00:19:22.501Z,982.28
2023-10-20T00:19:52.502Z,982.27
2023-10-20T00:20:22.517Z,982.28
2023-10-20T00:20:52.493Z,982.27
2023-10-20T00:21:22.476Z,982.27
2023-10-20T00:21:52.617Z,982.25
2023-10-20T00:22:22.649Z,982.24
2023-10-20T00:22:52.465Z,982.22
2023-10-20T00:23:22.491Z,982.20
2023-10-20T00:23:52.453Z,982.19
2023-10-20T00:24:22.464Z,982.17
2023-10-20T00:24:52.453Z,982.15
2023-10-20T00:25:22.436Z,982.12
2023-10-20T00:25:52.441Z,982.11
2023-10-20T00:26:22.441Z,982.09
2023-10-20T00:26:52.474Z,982.07
2023-10-20T00:27:22.455Z,982.05
2023-10-20T00:27:52.398Z,982.05
2023-10-20T00:28:22.399Z,982.07
2023-10-20T00:28:52.394Z,982.07
2023-10-20T00:29:22.435Z,982.08
2023-10-20T00:29:52.392Z,982.11
2023-10-20T00:30:22.374Z,982.11
2023-10-20T00:30:52.377Z,982.13
2023-10-20T00:31:22.391Z,982.13
2023-10-20T00:31:52.380Z,982.12
2023-10-20T00:32:22.408Z,982.11
2023-10-20T00:32:52.429Z,982.13
2023-10-20T00:33:22.400Z,982.12
2023-10-20T00:33:52.336Z,982.10
2023-10-20T00:34:22.342Z,982.11
2023-10-20T00:34:52.340Z,982.13
2023-10-20T00:35:22.361Z,982.15
2023-10-20T00:35:52.440Z,982.15
2023-10-20T00:36:22.481Z,982.18
2023-10-20T00:36:52.307Z,982.19
2023-10-20T00:37:22.311Z,982.20
2023-10-20T00:37:52.326Z,982.20
2023-10-20T00:38:22.338Z,982.20
2023-10-20T00:38:52.289Z,982.19
2023-10-20T00:39:22.288Z,982.19
2023-10-20T00:39:52.272Z,982.20
2023-10-20T00:40:22.287Z,982.20
2023-10-20T00:40:52.296Z,982.19
2023-10-20T00:41:22.453Z,982.19
2023-10-20T00:41:52.263Z,982.18
2023-10-20T00:42:22.271Z,982.16
2023-10-20T00:42:52.276Z,982.17
2023-10-20T00:43:22.275Z,982.16
2023-10-20T00:43:52.253Z,982.14
2023-10-20T00:44:22.309Z,982.14
2023-10-20T00:44:52.260Z,982.13
2023-10-20T00:45:22.217Z,982.14
2023-10-20T00:45:52.249Z,982.15
2023-10-20T00:46:22.217Z,982.17
2023-10-20T00:46:52.209Z,982.17
2023-10-20T00:47:22.280Z,982.18
2023-10-20T00:47:52.269Z,982.19
2023-10-20T00:48:22.317Z,982.19
2023-10-20T00:48:52.209Z,982.18
2023-10-20T00:49:22.189Z,982.19
2023-10-20T00:49:52.319Z,982.19
2023-10-20T00:50:22.417Z,982.17
2023-10-20T00:50:52.172Z,982.17
2023-10-20T00:51:22.179Z,982.15
2023-10-20T00:51:52.154Z,982.15
2023-10-20T00:52:22.146Z,982.15
2023-10-20T00:52:52.152Z,982.17
2023-10-20T00:53:22.191Z,982.15
2023-10-20T00:53:52.134Z,982.15
2023-10-20T00:54:22.156Z,982.12
2023-10-20T00:54:52.122Z,982.11
2023-10-20T00:55:22.154Z,982.09
2023-10-20T00:55:52.127Z,982.06
2023-10-20T00:56:22.145Z,982.04
2023-10-20T00:56:52.109Z,982.02
2023-10-20T00:57:22.095Z,982.00
2023-10-20T00:57:52.108Z,981.95
2023-10-20T00:58:22.087Z,981.95
2023-10-20T00:58:52.134Z,981.94
2023-10-20T00:59:22.113Z,981.93
2023-10-20T00:59:52.078Z,981.91
2023-10-20T01:00:22.088Z,981.91
2023-10-20T01:00:52.091Z,981.90
2023-10-20T01:01:22.124Z,981.88
2023-10-20T01:01:52.058Z,981.88
2023-10-20T01:02:22.172Z,981.90
2023-10-20T01:02:52.138Z,981.89
2023-10-20T01:03:22.220Z,981.88
2023-10-20T01:03:52.219Z,981.90
2023-10-20T01:04:22.230Z,981.91
2023-10-20T01:04:52.059Z,981.90
2023-10-20T01:05:22.077Z,981.91
2023-10-20T01:05:52.015Z,981.90
2023-10-20T01:06:22.029Z,981.88
2023-10-20T01:06:52.059Z,981.87
2023-10-20T01:07:22.009Z,981.86
2023-10-20T01:07:51.999Z,981.83
2023-10-20T01:08:22.011Z,981.85
2023-10-20T01:08:52.026Z,981.84
2023-10-20T01:09:22.070Z,981.83
2023-10-20T01:09:51.978Z,981.86
2023-10-20T01:10:21.992Z,981.85
2023-10-20T01:10:51.964Z,981.85
2023-10-20T01:11:21.979Z,981.84
2023-10-20T01:11:51.953Z,981.86
2023-10-20T01:12:22.004Z,981.88
2023-10-20T01:12:51.948Z,981.86
2023-10-20T01:13:21.957Z,981.85
2023-10-20T01:13:51.944Z,981.87
2023-10-20T01:14:21.974Z,981.87
2023-10-20T01:14:51.937Z,981.87
2023-10-20T01:15:21.915Z,981.86
2023-10-20T01:15:51.943Z,981.87
2023-10-20T01:16:21.991Z,981.90
2023-10-20T01:16:51.902Z,981.90
2023-10-20T01:17:21.922Z,981.92
2023-10-20T01:17:52.111Z,981.92
2023-10-20T01:18:22.176Z,981.91
2023-10-20T01:18:51.939Z,981.91
2023-10-20T01:19:21.902Z,981.90
2023-10-20T01:19:51.898Z,981.89
2023-10-20T01:20:21.892Z,981.87
2023-10-20T01:20:51.851Z,981.85
2023-10-20T01:21:21.854Z,981.83
2023-10-20T01:21:51.847Z,981.83
2023-10-20T01:22:21.851Z,981.82
2023-10-20T01:22:51.836Z,981.81
2023-10-20T01:23:21.893Z,981.80
2023-10-20T01:23:51.823Z,981.80
2023-10-20T01:24:21.827Z,981.80
2023-10-20T01:24:51.866Z,981.82
2023-10-20T01:25:21.818Z,981.85
2023-10-20T01:25:51.809Z,981.87
2023-10-20T01:26:21.873Z,981.88
2023-10-20T01:26:51.792Z,981.89
2023-10-20T01:27:21.804Z,981.89
2023-10-20T01:27:51.799Z,981.90
2023-10-20T01:28:21.784Z,981.92
2023-10-20T01:28:51.790Z,981.91
2023-10-20T01:29:21.822Z,981.91
2023-10-20T01:29:51.808Z,981.91
2023-10-20T01:30:21.769Z,981.91
2023-10-20T01:30:51.780Z,981.90
2023-10-20T01:31:21.755Z,981.90
2023-10-20T01:31:51.870Z,981.89
2023-10-20T01:32:21.963Z,981.86
2023-10-20T01:32:51.792Z,981.83
2023-10-20T01:33:21.762Z,981.83
2023-10-20T01:33:51.810Z,981.82
2023-10-20T01:34:21.790Z,981.81
2023-10-20T01:34:51.762Z,981.79
2023-10-20T01:35:21.718Z,981.79
2023-10-20T01:35:51.708Z,981.80
2023-10-20T01:36:21.700Z,981.77
2023-10-20T01:36:51.710Z,981.76
2023-10-20T01:37:21.697Z,981.74
2023-10-20T01:37:51.707Z,981.75
2023-10-20T01:38:21.802Z,981.73
2023-10-20T01:38:51.705Z,981.73
2023-10-20T01:39:21.699Z,981.72
2023-10-20T01:39:51.666Z,981.73
2023-10-20T01:40:21.699Z,981.73
2023-10-20T01:40:51.665Z,981.75
2023-10-20T01:41:21.689Z,981.74
2023-10-20T01:41:51.687Z,981.75
2023-10-20T01:42:21.659Z,981.76
2023-10-20T01:42:51.661Z,981.76
2023-10-20T01:43:21.627Z,981.75
2023-10-20T01:43:51.617Z,981.78
2023-10-20T01:44:21.718Z,981.79
2023-10-20T01:44:51.617Z,981.77
2023-10-20T01:45:21.604Z,981.77
2023-10-20T01:45:54.619Z,981.74
2023-10-20T01:46:39.736Z,981.72
2023-10-20T01:46:51.615Z,981.70
2023-10-20T01:47:21.646Z,981.65
2023-10-20T01:47:51.660Z,981.63
2023-10-20T01:48:21.588Z,981.61
2023-10-20T01:48:51.581Z,981.60
2023-10-20T01:49:21.590Z,981.58
2023-10-20T01:49:51.602Z,981.56
2023-10-20T01:50:21.638Z,981.56
2023-10-20T01:50:51.559Z,981.54
2023-10-20T01:51:21.547Z,981.54
2023-10-20T01:51:51.521Z,981.54
2023-10-20T01:52:21.536Z,981.54
2023-10-20T01:52:51.531Z,981.53
2023-10-20T01:53:21.558Z,981.52
2023-10-20T01:53:51.513Z,981.51
2023-10-20T01:54:21.733Z,981.52
2023-10-20T01:54:51.514Z,981.51
2023-10-20T01:55:21.555Z,981.50
2023-10-20T01:55:51.548Z,981.49
2023-10-20T01:56:21.529Z,981.48
2023-10-20T01:56:51.534Z,981.47
2023-10-20T01:57:21.489Z,981.43
2023-10-20T01:57:51.481Z,981.41
2023-10-20T01:58:21.476Z,981.39
2023-10-20T01:58:51.459Z,981.36
2023-10-20T01:59:21.543Z,981.35
2023-10-20T01:59:51.601Z,981.33
2023-10-20T02:00:21.645Z,981.34
2023-10-20T02:00:51.576Z,981.33
2023-10-20T02:01:21.502Z,981.34
2023-10-20T02:01:51.439Z,981.35
2023-10-20T02:02:21.520Z,981.34
2023-10-20T02:02:51.595Z,981.33
2023-10-20T02:03:21.597Z,981.35
2023-10-20T02:03:51.604Z,981.32
2023-10-20T02:04:21.419Z,981.33
2023-10-20T02:04:51.457Z,981.32
2023-10-20T02:05:21.445Z,981.30
2023-10-20T02:05:51.412Z,981.29
2023-10-20T02:06:21.414Z,981.29
2023-10-20T02:06:51.393Z,981.27
2023-10-20T02:07:21.424Z,981.27
2023-10-20T02:07:51.391Z,981.28
2023-10-20T02:08:21.468Z,981.30
2023-10-20T02:08:51.376Z,981.23
2023-10-20T02:09:21.371Z,981.25
2023-10-20T02:09:51.375Z,981.23
2023-10-20T02:10:21.357Z,981.22
2023-10-20T02:10:51.349Z,981.22
2023-10-20T02:11:21.382Z,981.22
2023-10-20T02:11:51.343Z,981.22
2023-10-20T02:12:21.358Z,981.21
2023-10-20T02:12:51.366Z,981.22
2023-10-20T02:13:21.326Z,981.21
2023-10-20T02:13:51.449Z,981.19
2023-10-20T02:14:21.521Z,981.17
2023-10-20T02:14:51.294Z,981.17
2023-10-20T02:15:21.317Z,981.18
2023-10-20T02:15:51.321Z,981.17
2023-10-20T02:16:21.299Z,981.15
2023-10-20T02:16:51.323Z,981.10
2023-10-20T02:17:21.316Z,981.10
2023-10-20T02:17:51.357Z,981.04
2023-10-20T02:18:21.309Z,981.01
2023-10-20T02:18:51.271Z,981.00
2023-10-20T02:19:21.274Z,980.98
2023-10-20T02:19:51.251Z,980.94
2023-10-20T02:20:21.328Z,980.94
2023-10-20T02:20:51.247Z,980.93
2023-10-20T02:21:21.235Z,980.91
2023-10-20T02:21:51.224Z,980.88
2023-10-20T02:22:21.239Z,980.89
2023-10-20T02:22:51.237Z,980.89
2023-10-20T02:23:21.232Z,980.89
2023-10-20T02:23:51.218Z,980.87
2023-10-20T02:24:21.219Z,980.91
2023-10-20T02:24:51.208Z,980.91
2023-10-20T02:25:21.270Z,980.90
2023-10-20T02:25:51.181Z,980.91
2023-10-20T02:26:21.220Z,980.90
2023-10-20T02:26:51.204Z,980.92
2023-10-20T02:27:21.188Z,980.93
2023-10-20T02:27:51.348Z,980.91
2023-10-20T02:28:21.352Z,980.90
2023-10-20T02:28:51.145Z,980.93
2023-10-20T02:29:21.234Z,980.93
2023-10-20T02:29:51.151Z,980.91
2023-10-20T02:30:21.165Z,980.94
2023-10-20T02:30:51.168Z,980.94
2023-10-20T02:31:21.212Z,980.94
2023-10-20T02:31:51.133Z,980.95
2023-10-20T02:32:21.167Z,980.93
2023-10-20T02:32:51.210Z,980.93
2023-10-20T02:33:21.202Z,980.91
2023-10-20T02:33:51.112Z,980.90
2023-10-20T02:34:21.100Z,980.89
2023-10-20T02:34:51.096Z,980.88
2023-10-20T02:35:21.138Z,980.86
2023-10-20T02:35:51.105Z,980.84
2023-10-20T02:36:21.082Z,980.85
2023-10-20T02:36:51.099Z,980.81
2023-10-20T02:37:21.068Z,980.82
2023-10-20T02:37:51.083Z,980.81
2023-10-20T02:38:21.121Z,980.80
2023-10-20T02:38:51.061Z,980.81
2023-10-20T02:39:21.077Z,980.82
2023-10-20T02:39:51.119Z,980.80
2023-10-20T02:40:21.049Z,980.83
2023-10-20T02:40:51.050Z,980.82
2023-10-20T02:41:21.114Z,980.82
2023-10-20T02:41:54.054Z,980.82
2023-10-20T02:42:39.166Z,980.81
2023-10-20T02:42:51.017Z,980.79
2023-10-20T02:43:21.023Z,980.77
2023-10-20T02:43:51.001Z,980.74
2023-10-20T02:44:21.089Z,980.72
2023-10-20T02:44:51.036Z,980.71
2023-10-20T02:45:20.988Z,980.69
2023-10-20T02:45:50.985Z,980.65
2023-10-20T02:46:20.998Z,980.62
2023-10-20T02:46:50.990Z,980.63
2023-10-20T02:47:21.012Z,980.61
2023-10-20T02:47:50.995Z,980.59
2023-10-20T02:48:21.009Z,980.58
2023-10-20T02:48:50.984Z,980.56
2023-10-20T02:49:20.973Z,980.58
2023-10-20T02:49:50.963Z,980.60
2023-10-20T02:50:20.993Z,980.60
2023-10-20T02:50:50.936Z,980.63
2023-10-20T02:51:20.935Z,980.64
2023-10-20T02:51:50.927Z,980.64
2023-10-20T02:52:20.914Z,980.66
2023-10-20T02:52:50.910Z,980.66
2023-10-20T02:53:20.944Z,980.66
2023-10-20T02:53:50.935Z,980.66
2023-10-20T02:54:20.900Z,980.63
2023-10-20T02:54:50.909Z,980.67
2023-10-20T02:55:20.903Z,980.65
2023-10-20T02:55:51.230Z,980.66
2023-10-20T02:56:21.104Z,980.65
2023-10-20T02:56:50.890Z,980.64
2023-10-20T02:57:20.862Z,980.63
2023-10-20T02:57:50.864Z,980.62
2023-10-20T02:58:20.875Z,980.62
2023-10-20T02:58:50.892Z,980.60
2023-10-20T02:59:20.904Z,980.61
2023-10-20T02:59:50.872Z,980.61
2023-10-20T03:00:20.869Z,980.61
2023-10-20T03:00:50.897Z,980.59
2023-10-20T03:01:20.864Z,980.58
2023-10-20T03:01:50.867Z,980.59
2023-10-20T03:02:20.873Z,980.57
2023-10-20T03:02:50.911Z,980.58
2023-10-20T03:03:20.977Z,980.56
2023-10-20T03:03:50.954Z,980.56
2023-10-20T03:04:20.864Z,980.53
2023-10-20T03:04:50.825Z,980.50
2023-10-20T03:05:20.843Z,980.52
2023-10-20T03:05:50.803Z,980.49
2023-10-20T03:06:20.799Z,980.48
2023-10-20T03:06:50.779Z,980.48
2023-10-20T03:07:20.788Z,980.45
2023-10-20T03:07:50.771Z,980.47
2023-10-20T03:08:20.800Z,980.46
2023-10-20T03:08:50.738Z,980.43
2023-10-20T03:09:20.749Z,980.43
2023-10-20T03:09:53.768Z,980.43
2023-10-20T03:10:38.872Z,980.44
2023-10-20T03:10:50.746Z,980.42
2023-10-20T03:11:20.811Z,980.42
2023-10-20T03:11:50.727Z,980.44
2023-10-20T03:12:20.711Z,980.46
2023-10-20T03:12:50.722Z,980.46
2023-10-20T03:13:20.704Z,980.45
2023-10-20T03:13:50.692Z,980.47
2023-10-20T03:14:20.740Z,980.46
2023-10-20T03:14:50.718Z,980.48
2023-10-20T03:15:20.706Z,980.48
2023-10-20T03:15:50.677Z,980.49
2023-10-20T03:16:20.716Z,980.50
2023-10-20T03:16:50.702Z,980.50
2023-10-20T03:17:20.764Z,980.50
2023-10-20T03:17:50.722Z,980.51
2023-10-20T03:18:20.736Z,980.50
2023-10-20T03:18:50.659Z,980.50
2023-10-20T03:19:20.691Z,980.51
2023-10-20T03:19:50.690Z,980.47
2023-10-20T03:20:20.680Z,980.43
2023-10-20T03:20:50.643Z,980.41
2023-10-20T03:21:20.617Z,980.39
2023-10-20T03:21:50.607Z,980.36
2023-10-20T03:22:20.611Z,980.35
2023-10-20T03:22:50.601Z,980.34
2023-10-20T03:23:20.636Z,980.34
2023-10-20T03:23:50.720Z,980.33
2023-10-20T03:24:20.763Z,980.34
2023-10-20T03:24:50.580Z,980.32
2023-10-20T03:25:21.225Z,980.30
2023-10-20T03:25:50.612Z,980.30
2023-10-20T03:26:20.665Z,980.30
2023-10-20T03:26:50.665Z,980.29
2023-10-20T03:27:20.648Z,980.29
2023-10-20T03:27:50.554Z,980.30
2023-10-20T03:28:20.540Z,980.31
2023-10-20T03:28:50.547Z,980.30
2023-10-20T03:29:20.597Z,980.31
2023-10-20T03:29:50.538Z,980.32
2023-10-20T03:30:20.535Z,980.32
2023-10-20T03:30:52.320Z,980.33
2023-10-20T03:31:20.544Z,980.34
2023-10-20T03:31:50.500Z,980.35
2023-10-20T03:32:20.572Z,980.35
2023-10-20T03:32:50.514Z,980.34
2023-10-20T03:33:20.574Z,980.32
2023-10-20T03:33:50.487Z,980.33
2023-10-20T03:34:20.476Z,980.31
2023-10-20T03:34:50.479Z,980.31
2023-10-20T03:35:20.503Z,980.31
2023-10-20T03:35:50.486Z,980.30
2023-10-20T03:36:20.476Z,980.29
2023-10-20T03:36:50.515Z,980.29
2023-10-20T03:37:20.487Z,980.27
2023-10-20T03:37:53.471Z,980.26
2023-10-20T03:38:38.594Z,980.25
2023-10-20T03:38:50.452Z,980.23
2023-10-20T03:39:20.425Z,980.23
2023-10-20T03:39:50.430Z,980.22
2023-10-20T03:40:20.423Z,980.21
2023-10-20T03:40:50.450Z,980.21
2023-10-20T03:41:20.440Z,980.19
2023-10-20T03:41:50.409Z,980.17
2023-10-20T03:42:20.409Z,980.16
2023-10-20T03:42:50.390Z,980.15
2023-10-20T03:43:20.389Z,980.13
2023-10-20T03:43:50.386Z,980.13
2023-10-20T03:44:20.401Z,980.12
2023-10-20T03:44:50.362Z,980.13
2023-10-20T03:45:20.383Z,980.11
2023-10-20T03:45:50.369Z,980.10
2023-10-20T03:46:20.444Z,980.10
2023-10-20T03:46:50.350Z,980.07
2023-10-20T03:47:20.461Z,980.05
2023-10-20T03:47:50.432Z,980.03
2023-10-20T03:48:20.422Z,980.01
2023-10-20T03:48:50.428Z,980.02
2023-10-20T03:49:20.401Z,979.98
2023-10-20T03:49:50.324Z,980.01
2023-10-20T03:50:20.339Z,979.95
2023-10-20T03:50:50.311Z,979.97
2023-10-20T03:51:20.317Z,979.98
2023-10-20T03:51:50.489Z,979.98
2023-10-20T03:52:20.453Z,979.95
2023-10-20T03:52:50.311Z,979.97
2023-10-20T03:53:22.507Z,979.96
2023-10-20T03:53:50.329Z,979.97
2023-10-20T03:54:20.389Z,979.95
2023-10-20T03:54:50.279Z,979.98
2023-10-20T03:55:20.273Z,979.98
2023-10-20T03:55:50.290Z,980.00
2023-10-20T03:56:20.737Z,980.00
2023-10-20T03:56:50.264Z,980.00
2023-10-20T03:57:20.241Z,980.00
2023-10-20T03:57:50.270Z,980.01
2023-10-20T03:58:21.206Z,980.01
2023-10-20T03:58:51.212Z,980.01
2023-10-20T03:59:20.276Z,979.97
2023-10-20T03:59:50.238Z,979.96
2023-10-20T04:00:20.221Z,979.95
2023-10-20T04:00:50.230Z,979.97
2023-10-20T04:01:20.229Z,979.96
2023-10-20T04:01:50.217Z,979.94
2023-10-20T04:02:20.213Z,979.93
2023-10-20T04:02:50.241Z,979.92
2023-10-20T04:03:20.313Z,979.92
2023-10-20T04:03:50.238Z,979.92
2023-10-20T04:04:20.216Z,979.93
2023-10-20T04:04:50.223Z,979.90
2023-10-20T04:05:20.207Z,979.92
2023-10-20T04:05:50.284Z,979.91
2023-10-20T04:06:20.380Z,979.89
2023-10-20T04:06:50.136Z,979.89
2023-10-20T04:07:20.131Z,979.89
2023-10-20T04:07:50.129Z,979.87
2023-10-20T04:08:20.181Z,979.86
2023-10-20T04:08:50.163Z,979.87
2023-10-20T04:09:20.150Z,979.90
2023-10-20T04:09:50.125Z,979.89
2023-10-20T04:10:20.118Z,979.91
2023-10-20T04:10:50.103Z,979.90
2023-10-20T04:11:21.177Z,979.91
2023-10-20T04:11:50.087Z,979.90
2023-10-20T04:12:20.096Z,979.94
2023-10-20T04:12:50.067Z,979.88
2023-10-20T04:13:20.078Z,979.89
2023-10-20T04:13:50.075Z,979.89
2023-10-20T04:14:20.161Z,979.88
2023-10-20T04:14:50.109Z,979.89
2023-10-20T04:15:20.053Z,979.89
2023-10-20T04:15:50.060Z,979.89
2023-10-20T04:16:20.146Z,979.89
2023-10-20T04:16:50.073Z,979.88
2023-10-20T04:17:20.055Z,979.88
2023-10-20T04:17:50.076Z,979.89
2023-10-20T04:18:20.086Z,979.85
2023-10-20T04:18:50.028Z,979.84
2023-10-20T04:19:20.015Z,979.80
2023-10-20T04:19:50.117Z,979.79
2023-10-20T04:20:20.298Z,979.80
2023-10-20T04:20:49.991Z,979.74
2023-10-20T04:21:20.040Z,979.72
2023-10-20T04:21:50.003Z,979.70
2023-10-20T04:22:19.976Z,979.66
2023-10-20T04:22:49.971Z,979.66
2023-10-20T04:23:20.028Z,979.65
2023-10-20T04:23:49.968Z,979.63
2023-10-20T04:24:19.958Z,979.63
2023-10-20T04:24:49.951Z,979.65
2023-10-20T04:25:19.974Z,979.63
2023-10-20T04:25:49.942Z,979.62
2023-10-20T04:26:19.999Z,979.62
2023-10-20T04:26:49.933Z,979.59
2023-10-20T04:27:19.924Z,979.59
2023-10-20T04:27:49.910Z,979.60
2023-10-20T04:28:19.913Z,979.59
2023-10-20T04:28:49.906Z,979.56
2023-10-20T04:29:20.046Z,979.56
2023-10-20T04:29:50.124Z,979.58
2023-10-20T04:30:19.903Z,979.55
2023-10-20T04:30:49.931Z,979.57
2023-10-20T04:31:19.911Z,979.53
2023-10-20T04:31:49.971Z,979.52
2023-10-20T04:32:19.946Z,979.52
2023-10-20T04:32:50.013Z,979.52
2023-10-20T04:33:19.943Z,979.51
2023-10-20T04:33:52.886Z,979.53
2023-10-20T04:34:37.979Z,979.50
2023-10-20T04:34:49.876Z,979.49
2023-10-20T04:35:19.871Z,979.48
2023-10-20T04:35:49.829Z,979.46
2023-10-20T04:36:19.842Z,979.47
2023-10-20T04:36:49.856Z,979.46
2023-10-20T04:37:19.820Z,979.48
2023-10-20T04:37:49.820Z,979.44
2023-10-20T04:38:19.850Z,979.47
2023-10-20T04:38:49.809Z,979.41
2023-10-20T04:39:19.803Z,979.40
2023-10-20T04:39:49.832Z,979.39
2023-10-20T04:40:19.824Z,979.39
2023-10-20T04:40:49.772Z,979.39
2023-10-20T04:41:19.796Z,979.38
2023-10-20T04:41:49.807Z,979.39
2023-10-20T04:42:19.763Z,979.36
2023-10-20T04:42:50.826Z,979.35
2023-10-20T04:43:19.752Z,979.30
2023-10-20T04:43:49.743Z,979.29
2023-10-20T04:44:19.751Z,979.25
2023-10-20T04:44:49.813Z,979.22
2023-10-20T04:45:19.774Z,979.18
2023-10-20T04:45:49.745Z,979.12
2023-10-20T04:46:19.778Z,979.07
2023-10-20T04:46:49.757Z,979.07
2023-10-20T04:47:19.735Z,979.04
2023-10-20T04:47:49.964Z,979.03
2023-10-20T04:48:19.908Z,979.04
2023-10-20T04:48:49.698Z,979.03
2023-10-20T04:49:19.681Z,979.02
2023-10-20T04:49:49.688Z,979.01
2023-10-20T04:50:19.689Z,979.03
2023-10-20T04:50:49.690Z,979.04
2023-10-20T04:51:19.666Z,979.04
2023-10-20T04:51:49.661Z,979.04
2023-10-20T04:52:19.699Z,979.02
2023-10-20T04:52:49.655Z,979.01
2023-10-20T04:53:19.659Z,978.99
2023-10-20T04:53:49.637Z,979.01
2023-10-20T04:54:19.641Z,978.99
2023-10-20T04:54:49.629Z,979.03
2023-10-20T04:55:19.646Z,978.98
2023-10-20T04:55:49.607Z,979.03
2023-10-20T04:56:19.666Z,979.04
2023-10-20T04:56:49.602Z,979.04
2023-10-20T04:57:19.610Z,979.07
2023-10-20T04:57:49.586Z,979.08
2023-10-20T04:58:19.586Z,979.07
2023-10-20T04:58:49.583Z,979.09
2023-10-20T04:59:19.649Z,979.11
2023-10-20T04:59:49.567Z,979.14
2023-10-20T05:00:19.583Z,979.15
2023-10-20T05:00:49.561Z,979.14
2023-10-20T05:01:19.567Z,979.13
2023-10-20T05:01:52.713Z,979.14
2023-10-20T05:02:37.770Z,979.14
2023-10-20T05:02:49.645Z,979.13
2023-10-20T05:03:19.681Z,979.12
2023-10-20T05:03:49.599Z,979.12
2023-10-20T05:04:19.557Z,979.11
2023-10-20T05:04:49.525Z,979.07
2023-10-20T05:05:19.569Z,979.08
2023-10-20T05:05:49.540Z,979.05
2023-10-20T05:06:19.513Z,979.02
2023-10-20T05:06:49.507Z,979.02
2023-10-20T05:07:19.535Z,979.02
2023-10-20T05:07:49.508Z,979.02
2023-10-20T05:08:19.518Z,979.01
2023-10-20T05:08:49.542Z,978.98
2023-10-20T05:09:19.482Z,978.98
2023-10-20T05:09:49.477Z,978.97
2023-10-20T05:10:19.474Z,978.98
2023-10-20T05:10:49.455Z,978.97
2023-10-20T05:11:19.519Z,978.97
2023-10-20T05:11:49.446Z,978.96
2023-10-20T05:12:19.453Z,978.96
2023-10-20T05:12:49.449Z,978.96
2023-10-20T05:13:19.450Z,978.96
2023-10-20T05:13:49.468Z,978.98
2023-10-20T05:14:19.482Z,978.95
2023-10-20T05:14:49.464Z,978.96
2023-10-20T05:15:19.417Z,978.98
2023-10-20T05:15:49.612Z,979.01
2023-10-20T05:16:19.602Z,979.02
2023-10-20T05:16:49.441Z,979.06
2023-10-20T05:17:19.532Z,979.06
2023-10-20T05:17:49.460Z,979.07
2023-10-20T05:18:19.451Z,979.08
2023-10-20T05:18:49.418Z,979.05
2023-10-20T05:19:19.369Z,979.08
2023-10-20T05:19:49.366Z,979.07
2023-10-20T05:20:19.366Z,979.06
2023-10-20T05:20:49.351Z,979.06
2023-10-20T05:21:19.362Z,979.04
2023-10-20T05:21:49.341Z,979.01
2023-10-20T05:22:19.345Z,978.99
2023-10-20T05:22:49.389Z,978.97
2023-10-20T05:23:19.363Z,978.96
2023-10-20T05:23:49.350Z,978.96
2023-10-20T05:24:19.356Z,978.96
2023-10-20T05:24:49.329Z,978.95
2023-10-20T05:25:19.299Z,978.94
2023-10-20T05:25:49.314Z,978.92
2023-10-20T05:26:19.332Z,978.88
2023-10-20T05:26:49.362Z,978.84
2023-10-20T05:27:19.327Z,978.82
2023-10-20T05:27:49.282Z,978.81
2023-10-20T05:28:19.305Z,978.80
2023-10-20T05:28:49.303Z,978.74
2023-10-20T05:29:19.291Z,978.73
2023-10-20T05:29:52.292Z,978.72
2023-10-20T05:30:37.394Z,978.68
2023-10-20T05:30:49.269Z,978.66
2023-10-20T05:31:19.276Z,978.66
2023-10-20T05:31:49.300Z,978.65
2023-10-20T05:32:19.288Z,978.63
2023-10-20T05:32:49.309Z,978.62
2023-10-20T05:33:19.286Z,978.67
2023-10-20T05:33:49.224Z,978.66
2023-10-20T05:34:19.239Z,978.67
2023-10-20T05:34:49.205Z,978.66
2023-10-20T05:35:19.242Z,978.65
2023-10-20T05:35:49.307Z,978.66
2023-10-20T05:36:19.188Z,978.68
2023-10-20T05:36:49.157Z,978.67
2023-10-20T05:37:19.139Z,978.68
2023-10-20T05:37:49.145Z,978.68
2023-10-20T05:38:19.242Z,978.70
2023-10-20T05:38:49.133Z,978.72
2023-10-20T05:39:20.043Z,978.71
2023-10-20T05:39:49.113Z,978.73
2023-10-20T05:40:19.139Z,978.76
2023-10-20T05:40:49.113Z,978.75
2023-10-20T05:41:19.152Z,978.76
2023-10-20T05:41:49.147Z,978.78
2023-10-20T05:42:19.078Z,978.83
2023-10-20T05:42:49.089Z,978.78
2023-10-20T05:43:19.089Z,978.83
2023-10-20T05:43:49.240Z,978.81
2023-10-20T05:44:19.382Z,978.81
2023-10-20T05:44:49.215Z,978.82
2023-10-20T05:45:19.088Z,978.78
2023-10-20T05:45:49.137Z,978.74
2023-10-20T05:46:19.486Z,978.76
2023-10-20T05:46:49.081Z,978.74
2023-10-20T05:47:19.292Z,978.70
2023-10-20T05:47:49.112Z,978.74
2023-10-20T05:48:19.071Z,978.75
2023-10-20T05:48:49.156Z,978.78
2023-10-20T05:49:19.173Z,978.77
2023-10-20T05:49:49.071Z,978.77
2023-10-20T05:50:19.079Z,978.80
2023-10-20T05:50:49.066Z,978.81
2023-10-20T05:51:19.018Z,978.77
2023-10-20T05:51:49.019Z,978.74
2023-10-20T05:52:19.000Z,978.74
2023-10-20T05:52:48.985Z,978.73
2023-10-20T05:53:18.996Z,978.70
2023-10-20T05:53:49.064Z,978.73
2023-10-20T05:54:18.974Z,978.69
2023-10-20T05:54:48.962Z,978.66
2023-10-20T05:55:18.995Z,978.66
2023-10-20T05:55:48.973Z,978.66
2023-10-20T05:56:19.013Z,978.66
2023-10-20T05:56:49.007Z,978.68
2023-10-20T05:57:18.945Z,978.69
2023-10-20T05:57:51.955Z,978.66
2023-10-20T05:58:37.041Z,978.66
2023-10-20T05:58:48.923Z,978.67
2023-10-20T05:59:18.983Z,978.65
2023-10-20T05:59:48.989Z,978.64
2023-10-20T06:00:18.923Z,978.63
2023-10-20T06:01:01.881Z,978.61
2023-10-20T06:01:18.971Z,978.59
2023-10-20T06:01:48.917Z,978.60
2023-10-20T06:02:18.905Z,978.58
2023-10-20T06:02:48.973Z,978.60
2023-10-20T06:03:18.983Z,978.55
2023-10-20T06:03:48.976Z,978.57
2023-10-20T06:04:18.952Z,978.56
2023-10-20T06:04:48.894Z,978.59
2023-10-20T06:05:18.929Z,978.60
2023-10-20T06:05:48.924Z,978.60
2023-10-20T06:06:18.920Z,978.61
2023-10-20T06:06:48.846Z,978.61
2023-10-20T06:07:18.850Z,978.62
2023-10-20T06:07:48.855Z,978.65
2023-10-20T06:08:18.877Z,978.61
2023-10-20T06:08:48.908Z,978.61
2023-10-20T06:09:18.815Z,978.63
2023-10-20T06:09:48.857Z,978.60
2023-10-20T06:10:18.818Z,978.57
2023-10-20T06:10:48.802Z,978.58
2023-10-20T06:11:18.860Z,978.55
2023-10-20T06:11:49.021Z,978.55
2023-10-20T06:12:18.967Z,978.54
2023-10-20T06:12:48.783Z,978.51
2023-10-20T06:13:18.786Z,978.53
2023-10-20T06:13:48.822Z,978.50
2023-10-20T06:14:18.802Z,978.51